createdAt,value
2019-04-16T00:00:53.860Z,30.00
2019-04-16T00:03:24.924Z,30.00
2019-04-16T00:05:59.157Z,30.00
2019-04-16T00:08:30.567Z,30.00
2019-04-16T00:11:02.674Z,30.00
2019-04-16T00:13:35.132Z,30.00
2019-04-16T00:16:06.125Z,30.00
2019-04-16T00:18:39.006Z,30.00
2019-04-16T00:21:11.541Z,30.00
2019-04-16T00:23:46.564Z,30.00
2019-04-16T00:26:16.640Z,29.90
2019-04-16T00:28:47.477Z,29.80
2019-04-16T00:31:18.283Z,29.70
2019-04-16T00:33:49.346Z,29.70
2019-04-16T00:36:20.080Z,29.60
2019-04-16T00:38:53.914Z,29.60
2019-04-16T00:41:23.049Z,29.50
2019-04-16T00:43:56.030Z,29.50
2019-04-16T00:46:26.910Z,29.60
2019-04-16T00:48:58.222Z,29.70
2019-04-16T00:51:29.284Z,29.80
2019-04-16T00:54:00.074Z,29.90
2019-04-16T00:56:31.955Z,29.90
2019-04-16T00:59:02.750Z,30.00
2019-04-16T01:01:33.669Z,30.10
2019-04-16T01:04:05.516Z,30.20
2019-04-16T01:06:37.957Z,30.30
2019-04-16T01:09:09.320Z,30.30
2019-04-16T01:11:41.320Z,30.40
2019-04-16T01:14:12.294Z,30.50
2019-04-16T01:16:43.160Z,30.50
2019-04-16T01:19:17.614Z,30.60
2019-04-16T01:21:49.678Z,30.60
2019-04-16T01:24:21.921Z,30.70
2019-04-16T01:26:55.427Z,30.80
2019-04-16T01:29:24.950Z,30.90
2019-04-16T01:31:58.250Z,30.90
2019-04-16T01:34:29.801Z,30.90
2019-04-16T01:37:02.448Z,30.90
2019-04-16T01:39:34.847Z,30.90
2019-04-16T01:42:06.139Z,31.00
2019-04-16T01:44:37.180Z,30.90
2019-04-16T01:47:08.554Z,31.00
2019-04-16T01:49:42.220Z,31.10
2019-04-16T01:52:12.067Z,31.10
2019-04-16T01:54:43.990Z,31.20
2019-04-16T01:57:14.700Z,31.30
2019-04-16T01:59:46.598Z,31.40
2019-04-16T02:02:21.663Z,31.50
2019-04-16T02:04:52.795Z,31.60
2019-04-16T02:07:27.686Z,31.70
2019-04-16T02:09:57.164Z,31.80
2019-04-16T02:12:28.717Z,31.90
2019-04-16T02:14:59.851Z,32.00
2019-04-16T02:17:33.454Z,32.20
2019-04-16T02:20:10.926Z,32.30
2019-04-16T02:22:42.248Z,32.40
2019-04-16T02:25:12.851Z,32.50
2019-04-16T02:27:48.742Z,32.60
2019-04-16T02:30:29.597Z,32.80
2019-04-16T02:33:00.525Z,32.80
2019-04-16T02:35:40.117Z,32.90
2019-04-16T02:41:02.378Z,33.10
2019-04-16T02:43:40.038Z,33.20
2019-04-16T02:46:30.886Z,33.30
2019-04-16T02:49:10.608Z,33.40
2019-04-16T02:51:45.959Z,33.40
2019-04-16T02:57:12.116Z,33.50
2019-04-16T02:59:47.339Z,33.50
2019-04-16T03:02:22.712Z,33.50
2019-04-16T03:04:52.877Z,33.50
2019-04-16T03:07:23.779Z,33.50
2019-04-16T03:10:01.272Z,33.60
2019-04-16T03:12:27.785Z,33.60
2019-04-16T03:15:01.065Z,33.50
2019-04-16T03:17:32.684Z,33.60
2019-04-16T03:20:05.070Z,33.50
2019-04-16T03:22:39.384Z,33.60
2019-04-16T03:25:13.626Z,33.60
2019-04-16T03:27:43.328Z,33.60
2019-04-16T03:30:15.757Z,33.70
2019-04-16T03:32:48.013Z,33.80
2019-04-16T03:35:19.057Z,33.90
2019-04-16T03:37:49.938Z,34.00
2019-04-16T03:40:24.935Z,34.10
2019-04-16T03:43:05.604Z,34.20
2019-04-16T03:45:41.730Z,34.30
2019-04-16T03:48:20.653Z,34.50
2019-04-16T03:51:12.679Z,34.60
2019-04-16T03:53:58.898Z,34.80
2019-04-16T03:56:27.656Z,34.90
2019-04-16T03:59:13.745Z,35.00
2019-04-16T04:01:46.194Z,35.10
2019-04-16T04:04:17.068Z,35.10
2019-04-16T04:07:18.010Z,35.10
2019-04-16T04:09:25.335Z,35.10
2019-04-16T04:11:57.290Z,35.10
2019-04-16T04:14:37.002Z,35.20
2019-04-16T04:17:07.897Z,35.10
2019-04-16T04:19:38.825Z,35.00
2019-04-16T04:22:09.660Z,35.00
2019-04-16T04:24:41.695Z,35.10
2019-04-16T04:27:14.356Z,35.10
2019-04-16T04:30:00.432Z,35.00
2019-04-16T04:32:32.466Z,35.10
2019-04-16T04:35:03.623Z,35.10
2019-04-16T04:37:35.578Z,35.20
2019-04-16T04:40:07.778Z,35.30
2019-04-16T04:42:38.899Z,35.60
2019-04-16T04:45:10.580Z,35.70
2019-04-16T04:47:41.491Z,35.70
2019-04-16T04:50:12.518Z,35.90
2019-04-16T04:52:45.992Z,36.00
2019-04-16T04:55:16.740Z,36.10
2019-04-16T04:57:47.428Z,36.10
2019-04-16T05:00:18.658Z,36.30
2019-04-16T05:02:49.467Z,36.40
2019-04-16T05:05:25.943Z,36.40
2019-04-16T05:07:59.666Z,36.50
2019-04-16T05:10:36.900Z,36.60
2019-04-16T05:13:06.707Z,36.70
2019-04-16T05:15:37.755Z,36.80
2019-04-16T05:18:09.913Z,36.90
2019-04-16T05:20:41.018Z,36.90
2019-04-16T05:23:12.134Z,36.90
2019-04-16T05:25:43.042Z,36.90
2019-04-16T05:28:13.687Z,36.90
2019-04-16T05:30:44.836Z,36.90
2019-04-16T05:33:15.863Z,36.90
2019-04-16T05:36:05.027Z,36.80
2019-04-16T05:38:30.899Z,36.80
2019-04-16T05:41:12.473Z,36.90
2019-04-16T05:43:36.213Z,36.90
2019-04-16T05:46:08.966Z,36.90
2019-04-16T05:48:41.253Z,36.90
2019-04-16T05:51:12.323Z,36.80
2019-04-16T05:53:46.992Z,36.60
2019-04-16T05:56:23.942Z,36.50
2019-04-16T05:58:54.227Z,36.30
2019-04-16T06:01:26.366Z,36.30
2019-04-16T06:05:21.023Z,36.40
2019-04-16T06:06:44.323Z,36.50
2019-04-16T06:09:16.601Z,36.60
2019-04-16T06:11:47.308Z,36.60
2019-04-16T06:14:19.818Z,36.60
2019-04-16T06:16:56.939Z,36.70
2019-04-16T06:19:28.453Z,36.70
2019-04-16T06:22:00.778Z,36.70
2019-04-16T06:24:35.781Z,36.70
2019-04-16T06:27:07.286Z,36.70
2019-04-16T06:29:38.286Z,36.60
2019-04-16T06:32:12.197Z,36.60
2019-04-16T06:34:45.566Z,36.60
2019-04-16T06:37:20.278Z,36.70
2019-04-16T06:39:51.659Z,36.80
2019-04-16T06:42:25.999Z,36.90
2019-04-16T06:48:12.857Z,37.10
2019-04-16T06:50:43.665Z,37.20
2019-04-16T06:53:15.861Z,37.30
2019-04-16T06:55:47.839Z,37.30
2019-04-16T06:58:27.749Z,37.30
2019-04-16T07:00:59.305Z,37.20
2019-04-16T07:03:32.445Z,37.20
2019-04-16T07:06:03.963Z,37.20
2019-04-16T07:08:38.108Z,37.20
2019-04-16T07:11:16.663Z,37.10
2019-04-16T07:13:47.598Z,37.10
2019-04-16T07:16:20.923Z,37.10
2019-04-16T07:18:51.794Z,37.00
2019-04-16T07:21:22.520Z,37.00
2019-04-16T07:23:56.867Z,37.10
2019-04-16T07:26:29.738Z,37.20
2019-04-16T07:29:01.927Z,37.30
2019-04-16T07:31:36.008Z,37.40
2019-04-16T07:34:08.136Z,37.40
2019-04-16T07:36:40.142Z,37.40
2019-04-16T07:39:28.205Z,37.40
2019-04-16T07:41:48.289Z,37.40
2019-04-16T07:44:20.235Z,37.40
2019-04-16T07:46:53.634Z,37.50
2019-04-16T07:49:33.503Z,37.50
2019-04-16T07:52:07.292Z,37.50
2019-04-16T07:54:38.603Z,37.50
2019-04-16T07:57:09.315Z,37.60
2019-04-16T07:59:40.529Z,37.70
2019-04-16T08:02:11.408Z,37.70
2019-04-16T08:04:42.282Z,37.60
2019-04-16T08:07:13.283Z,37.60
2019-04-16T08:09:44.389Z,37.60
2019-04-16T08:12:29.297Z,37.70
2019-04-16T08:15:18.548Z,37.60
2019-04-16T08:17:42.843Z,37.60
2019-04-16T08:20:13.390Z,37.50
2019-04-16T08:22:47.197Z,37.50
2019-04-16T08:25:20.448Z,37.60
2019-04-16T08:27:54.278Z,37.60
2019-04-16T08:30:34.642Z,37.70
2019-04-16T08:33:03.653Z,37.70
2019-04-16T08:35:35.119Z,37.70
2019-04-16T08:38:06.994Z,37.70
2019-04-16T08:40:40.312Z,37.70
2019-04-16T08:43:19.239Z,37.60
2019-04-16T08:45:51.967Z,37.50
2019-04-16T08:48:31.754Z,37.50
2019-04-16T08:51:06.896Z,37.40
2019-04-16T08:53:40.597Z,37.40
2019-04-16T08:56:11.688Z,37.40
2019-04-16T08:58:42.534Z,37.40
2019-04-16T09:01:15.492Z,37.30
2019-04-16T09:03:53.273Z,37.30
2019-04-16T09:06:21.393Z,37.40
2019-04-16T09:08:53.831Z,37.40
2019-04-16T09:11:28.346Z,37.40
2019-04-16T09:13:58.998Z,37.40
2019-04-16T09:16:29.959Z,37.40
2019-04-16T09:19:01.989Z,37.40
2019-04-16T09:21:33.017Z,37.30
2019-04-16T09:24:09.925Z,37.20
2019-04-16T09:26:43.725Z,37.30
2019-04-16T09:29:14.978Z,37.20
2019-04-16T09:31:47.373Z,37.20
2019-04-16T09:34:19.898Z,37.20
2019-04-16T09:36:54.271Z,37.20
2019-04-16T09:39:25.519Z,37.20
2019-04-16T09:42:05.530Z,37.20
2019-04-16T09:47:14.956Z,37.20
2019-04-16T09:49:46.255Z,37.10
2019-04-16T09:52:19.955Z,37.10
2019-04-16T09:54:49.508Z,37.00
2019-04-16T09:57:20.308Z,37.00
2019-04-16T09:59:56.569Z,37.00
2019-04-16T10:02:28.704Z,37.00
2019-04-16T10:04:59.767Z,36.90
2019-04-16T10:07:30.764Z,36.90
2019-04-16T10:10:01.616Z,36.90
2019-04-16T10:12:32.673Z,36.80
2019-04-16T10:15:03.427Z,36.80
2019-04-16T10:17:53.426Z,36.70
2019-04-16T10:20:26.372Z,36.70
2019-04-16T10:22:58.411Z,36.70
2019-04-16T10:25:33.501Z,36.70
2019-04-16T10:28:05.883Z,36.70
2019-04-16T10:30:39.622Z,36.70
2019-04-16T10:33:10.525Z,36.70
2019-04-16T10:35:41.368Z,36.70
2019-04-16T10:38:14.140Z,36.60
2019-04-16T10:40:46.599Z,36.60
2019-04-16T10:43:18.491Z,36.60
2019-04-16T10:45:53.139Z,36.50
2019-04-16T10:48:25.700Z,36.50
2019-04-16T10:51:00.688Z,36.50
2019-04-16T10:53:31.678Z,36.50
2019-04-16T10:56:03.895Z,36.40
2019-04-16T10:58:36.721Z,36.40
2019-04-16T11:01:09.034Z,36.40
2019-04-16T11:03:41.438Z,36.40
2019-04-16T11:06:18.083Z,36.30
2019-04-16T11:08:48.682Z,36.30
2019-04-16T11:11:19.754Z,36.20
2019-04-16T11:14:00.310Z,36.20
2019-04-16T11:16:25.523Z,36.20
2019-04-16T11:18:56.203Z,36.10
2019-04-16T11:21:27.119Z,36.10
2019-04-16T11:23:59.285Z,36.00
2019-04-16T11:26:30.185Z,36.00
2019-04-16T11:29:03.579Z,36.00
2019-04-16T11:31:34.661Z,35.90
2019-04-16T11:34:06.829Z,35.90
2019-04-16T11:36:39.323Z,35.90
2019-04-16T11:39:26.094Z,35.90
2019-04-16T11:42:00.984Z,35.80
2019-04-16T11:44:33.699Z,35.80
2019-04-16T11:47:10.927Z,35.80
2019-04-16T11:49:41.819Z,35.80
2019-04-16T11:52:15.923Z,35.70
2019-04-16T11:54:47.717Z,35.70
2019-04-16T11:57:19.033Z,35.60
2019-04-16T11:59:54.777Z,35.60
2019-04-16T12:02:23.606Z,35.60
2019-04-16T12:04:59.120Z,35.60
2019-04-16T12:07:27.816Z,35.50
2019-04-16T12:09:59.698Z,35.50
2019-04-16T12:12:32.171Z,35.50
2019-04-16T12:15:04.271Z,35.50
2019-04-16T12:17:36.872Z,35.50
2019-04-16T12:20:10.500Z,35.60
2019-04-16T12:22:43.297Z,35.50
2019-04-16T12:25:16.285Z,35.40
2019-04-16T12:27:48.420Z,35.40
2019-04-16T12:33:17.852Z,35.30
2019-04-16T12:35:49.863Z,35.30
2019-04-16T12:38:24.293Z,35.20
2019-04-16T12:43:36.482Z,35.10
2019-04-16T12:46:08.244Z,35.10
2019-04-16T12:48:40.444Z,35.00
2019-04-16T12:51:12.903Z,35.00
2019-04-16T12:53:45.378Z,34.90
2019-04-16T12:56:17.681Z,34.90
2019-04-16T12:58:51.329Z,34.80
2019-04-16T13:01:23.906Z,34.80
2019-04-16T13:03:55.967Z,34.70
2019-04-16T13:06:29.359Z,34.70
2019-04-16T13:09:01.424Z,34.70
2019-04-16T13:11:35.232Z,34.60
2019-04-16T13:14:07.415Z,34.60
2019-04-16T13:16:38.764Z,34.60
2019-04-16T13:19:11.015Z,34.60
2019-04-16T13:21:46.350Z,34.60
2019-04-16T13:24:18.570Z,34.60
2019-04-16T13:26:51.044Z,34.60
2019-04-16T13:29:37.370Z,34.50
2019-04-16T13:31:55.681Z,34.50
2019-04-16T13:34:27.442Z,34.50
2019-04-16T13:36:59.606Z,34.50
2019-04-16T13:39:32.698Z,34.50
2019-04-16T13:42:03.497Z,34.50
2019-04-16T13:44:42.386Z,34.50
2019-04-16T13:47:13.407Z,34.50
2019-04-16T13:50:02.597Z,34.40
2019-04-16T13:52:29.717Z,34.40
2019-04-16T13:55:01.771Z,34.30
2019-04-16T13:58:31.724Z,34.30
2019-04-16T14:00:51.136Z,34.30
2019-04-16T14:03:23.925Z,34.40
2019-04-16T14:05:56.646Z,34.30
2019-04-16T14:08:46.242Z,34.30
2019-04-16T14:11:19.847Z,34.30
2019-04-16T14:17:09.975Z,34.30
2019-04-16T14:22:21.639Z,34.30
2019-04-16T14:25:08.413Z,34.20
2019-04-16T14:27:39.353Z,34.20
2019-04-16T14:30:20.311Z,34.10
2019-04-16T14:32:51.142Z,34.00
2019-04-16T14:35:33.032Z,34.00
2019-04-16T14:37:56.207Z,34.00
2019-04-16T14:40:27.354Z,33.90
2019-04-16T14:43:02.730Z,33.90
2019-04-16T14:45:53.611Z,33.90
2019-04-16T14:48:08.895Z,33.80
2019-04-16T14:50:39.735Z,33.80
2019-04-16T14:53:11.769Z,33.60
2019-04-16T14:55:58.747Z,33.60
2019-04-16T14:58:17.396Z,33.60
2019-04-16T15:00:50.736Z,33.60
2019-04-16T15:03:23.020Z,33.50
2019-04-16T15:05:56.403Z,33.50
2019-04-16T15:08:29.112Z,33.50
2019-04-16T15:11:01.407Z,33.60
2019-04-16T15:13:33.777Z,33.60
2019-04-16T15:16:12.962Z,33.60
2019-04-16T15:18:40.130Z,33.70
2019-04-16T15:21:12.560Z,33.70
2019-04-16T15:23:45.544Z,33.70
2019-04-16T15:26:16.210Z,33.60
2019-04-16T15:28:48.935Z,33.60
2019-04-16T15:31:21.096Z,33.60
2019-04-16T15:33:51.621Z,33.60
2019-04-16T15:36:25.013Z,33.60
2019-04-16T15:38:58.653Z,33.50
2019-04-16T15:41:30.318Z,33.50
2019-04-16T15:44:02.523Z,33.50
2019-04-16T15:46:35.237Z,33.50
2019-04-16T15:49:08.085Z,33.50
2019-04-16T15:51:40.209Z,33.50
2019-04-16T15:54:20.765Z,33.50
2019-04-16T15:56:52.979Z,33.50
2019-04-16T15:59:25.122Z,33.50
2019-04-16T16:01:57.926Z,33.40
2019-04-16T16:04:30.115Z,33.50
2019-04-16T16:07:23.999Z,33.40
2019-04-16T16:09:52.454Z,33.40
2019-04-16T16:12:24.395Z,33.40
2019-04-16T16:14:56.748Z,33.30
2019-04-16T16:23:32.995Z,33.30
2019-04-16T16:27:19.096Z,33.40
2019-04-16T16:28:37.456Z,33.30
2019-04-16T16:32:45.419Z,33.40
2019-04-16T16:34:09.587Z,33.30
2019-04-16T16:36:48.290Z,33.30
2019-04-16T16:39:19.422Z,33.30
2019-04-16T16:42:13.639Z,33.30
2019-04-16T16:45:10.318Z,33.20
2019-04-16T16:47:58.835Z,33.20
2019-04-16T16:50:33.571Z,33.20
2019-04-16T16:53:11.073Z,33.10
2019-04-16T16:55:43.741Z,33.10
2019-04-16T16:58:17.988Z,33.20
2019-04-16T17:01:08.278Z,33.20
2019-04-16T17:03:25.991Z,33.10
2019-04-16T17:05:57.997Z,33.10
2019-04-16T17:08:30.277Z,33.10
2019-04-16T17:11:14.635Z,33.10
2019-04-16T17:13:33.404Z,33.00
2019-04-16T17:16:04.278Z,32.90
2019-04-16T17:18:35.209Z,32.90
2019-04-16T17:21:08.488Z,33.00
2019-04-16T17:23:39.314Z,33.00
2019-04-16T17:26:10.104Z,33.00
2019-04-16T17:28:44.237Z,33.00
2019-04-16T17:31:19.329Z,33.00
2019-04-16T17:33:51.388Z,33.00
2019-04-16T17:36:22.345Z,33.00
2019-04-16T17:38:52.983Z,33.00
2019-04-16T17:41:25.173Z,33.00
2019-04-16T17:44:01.875Z,33.00
2019-04-16T17:46:31.027Z,33.00
2019-04-16T17:49:03.015Z,33.00
2019-04-16T17:51:35.268Z,33.00
2019-04-16T17:54:07.379Z,33.00
2019-04-16T17:56:40.803Z,33.00
2019-04-16T17:59:12.716Z,32.90
2019-04-16T18:01:44.844Z,32.90
2019-04-16T18:04:16.883Z,32.80
2019-04-16T18:06:47.491Z,32.80
2019-04-16T18:09:19.929Z,32.80
2019-04-16T18:11:52.023Z,32.80
2019-04-16T18:14:24.440Z,32.80
2019-04-16T18:16:56.773Z,32.80
2019-04-16T18:19:29.006Z,32.80
2019-04-16T18:22:04.366Z,32.80
2019-04-16T18:24:34.667Z,32.80
2019-04-16T18:27:06.813Z,32.80
2019-04-16T18:29:38.853Z,32.80
2019-04-16T18:32:09.413Z,32.70
2019-04-16T18:34:43.479Z,32.70
2019-04-16T18:37:14.908Z,32.70
2019-04-16T18:39:47.173Z,32.70
2019-04-16T18:42:19.284Z,32.70
2019-04-16T18:44:53.887Z,32.70
2019-04-16T18:47:25.203Z,32.60
2019-04-16T18:49:57.253Z,32.60
2019-04-16T18:52:28.059Z,32.60
2019-04-16T18:54:59.012Z,32.50
2019-04-16T18:57:29.881Z,32.60
2019-04-16T19:00:00.607Z,32.60
2019-04-16T19:02:32.134Z,32.60
2019-04-16T19:05:03.388Z,32.50
2019-04-16T19:07:34.552Z,32.60
2019-04-16T19:10:06.496Z,32.50
2019-04-16T19:12:37.231Z,32.50
2019-04-16T19:15:08.960Z,32.50
2019-04-16T19:17:39.784Z,32.50
2019-04-16T19:20:11.119Z,32.50
2019-04-16T19:22:41.797Z,32.40
2019-04-16T19:25:12.832Z,32.40
2019-04-16T19:27:43.660Z,32.40
2019-04-16T19:30:14.629Z,32.40
2019-04-16T19:32:45.540Z,32.40
2019-04-16T19:35:19.138Z,32.40
2019-04-16T19:37:48.828Z,32.30
2019-04-16T19:40:19.615Z,32.30
2019-04-16T19:42:50.488Z,32.30
2019-04-16T19:45:21.695Z,32.30
2019-04-16T19:47:52.766Z,32.30
2019-04-16T19:50:23.741Z,32.30
2019-04-16T19:52:54.406Z,32.30
2019-04-16T19:55:25.326Z,32.30
2019-04-16T19:57:57.514Z,32.30
2019-04-16T20:00:28.862Z,32.30
2019-04-16T20:02:59.597Z,32.30
2019-04-16T20:05:30.647Z,32.30
2019-04-16T20:08:01.362Z,32.20
2019-04-16T20:10:32.111Z,32.20
2019-04-16T20:13:03.257Z,32.20
2019-04-16T20:15:34.055Z,32.20
2019-04-16T20:18:07.117Z,32.20
2019-04-16T20:20:37.752Z,32.10
2019-04-16T20:23:08.514Z,32.10
2019-04-16T20:25:39.507Z,32.10
2019-04-16T20:28:15.462Z,32.10
2019-04-16T20:30:42.627Z,32.00
2019-04-16T20:33:13.464Z,32.00
2019-04-16T20:35:44.182Z,32.00
2019-04-16T20:38:17.049Z,32.00
2019-04-16T20:40:47.487Z,32.00
2019-04-16T20:43:18.318Z,32.00
2019-04-16T20:45:49.147Z,31.90
2019-04-16T20:48:20.082Z,31.90
2019-04-16T20:50:53.016Z,31.90
2019-04-16T20:53:22.886Z,31.90
2019-04-16T20:55:53.826Z,31.80
2019-04-16T20:58:28.039Z,31.80
2019-04-16T21:00:58.364Z,31.80
2019-04-16T21:03:30.969Z,31.80
2019-04-16T21:06:01.519Z,31.70
2019-04-16T21:08:32.727Z,31.70
2019-04-16T21:11:07.657Z,31.70
2019-04-16T21:13:36.237Z,31.70
2019-04-16T21:16:07.272Z,31.70
2019-04-16T21:18:37.983Z,31.60
2019-04-16T21:21:08.969Z,31.60
2019-04-16T21:23:39.681Z,31.60
2019-04-16T21:26:10.563Z,31.60
2019-04-16T21:28:42.579Z,31.60
2019-04-16T21:31:14.862Z,31.60
2019-04-16T21:33:49.191Z,31.60
2019-04-16T21:36:20.649Z,31.50
2019-04-16T21:38:52.860Z,31.50
2019-04-16T21:41:25.557Z,31.50
2019-04-16T21:43:55.886Z,31.50
2019-04-16T21:46:27.358Z,31.40
2019-04-16T21:48:59.772Z,31.40
2019-04-16T21:51:30.704Z,31.40
2019-04-16T21:54:01.819Z,31.40
2019-04-16T21:56:32.484Z,31.40
2019-04-16T21:59:05.617Z,31.40
2019-04-16T22:01:37.117Z,31.40
2019-04-16T22:04:13.406Z,31.40
2019-04-16T22:06:41.554Z,31.40
2019-04-16T22:09:12.487Z,31.40
2019-04-16T22:11:44.533Z,31.40
2019-04-16T22:14:15.889Z,31.40
2019-04-16T22:16:46.862Z,31.40
2019-04-16T22:19:17.746Z,31.40
2019-04-16T22:21:48.525Z,31.40
2019-04-16T22:24:19.797Z,31.40
2019-04-16T22:26:51.611Z,31.30
2019-04-16T22:29:22.513Z,31.40
2019-04-16T22:31:57.005Z,31.40
2019-04-16T22:34:25.512Z,31.40
2019-04-16T22:36:56.389Z,31.40
2019-04-16T22:39:31.488Z,31.40
2019-04-16T22:42:03.700Z,31.40
2019-04-16T22:44:35.959Z,31.40
2019-04-16T22:47:08.655Z,31.30
2019-04-16T22:49:39.580Z,31.30
2019-04-16T22:52:12.476Z,31.30
2019-04-16T22:54:42.390Z,31.30
2019-04-16T22:57:14.420Z,31.30
2019-04-16T22:59:45.350Z,31.20
2019-04-16T23:02:17.828Z,31.20
2019-04-16T23:04:48.703Z,31.10
2019-04-16T23:07:23.307Z,31.10
2019-04-16T23:09:54.462Z,31.10
2019-04-16T23:12:28.076Z,31.10
2019-04-16T23:14:58.171Z,31.10
2019-04-16T23:17:33.973Z,31.10
2019-04-16T23:20:03.732Z,31.20
2019-04-16T23:22:34.832Z,31.20
2019-04-16T23:25:06.785Z,31.20
2019-04-16T23:27:38.221Z,31.20
2019-04-16T23:30:10.134Z,31.20
2019-04-16T23:32:40.875Z,31.20
2019-04-16T23:35:11.933Z,31.20
2019-04-16T23:37:42.867Z,31.20
2019-04-16T23:40:13.844Z,31.20
2019-04-16T23:42:47.481Z,31.20
2019-04-16T23:45:19.501Z,31.20
2019-04-16T23:47:51.713Z,31.30
2019-04-16T23:50:23.882Z,31.30
2019-04-16T23:52:56.126Z,31.30
2019-04-16T23:55:28.177Z,31.30
2019-04-16T23:57:58.699Z,31.30
